This is the latest recevied weather packets stored in our database for station/object JQ2GLP-13. If no packets are shown the sender has not sent any weather packets the latest 1 day(s).
| Time | Temp. | Humidity | Pressure | Rain* | Wind** | Luminosity | Snow |
|---|---|---|---|---|---|---|---|
| 1778036835 | 20° C | 61% | 1015.5 hPa | 0 mm | 2.68 m/s, 205° | - | - |
| 1778033235 | 19.44° C | 61% | 1016.2 hPa | 0 mm | 0.89 m/s, 162° | - | - |
| 1778031431 | 19.44° C | 61% | 1016.5 hPa | 0 mm | 2.24 m/s, 122° | - | - |
| 1778029631 | 19.44° C | 61% | 1016.7 hPa | 0 mm | 0.89 m/s, 141° | - | - |
| 1778024231 | 18.33° C | 59% | 1016.9 hPa | 0 mm | 1.34 m/s, 134° | - | - |
| 1778022430 | 17.22° C | 62% | 1017.4 hPa | 0 mm | 0.89 m/s, 124° | - | - |
| 1778020632 | 17.22° C | 60% | 1017.4 hPa | 0 mm | 0.89 m/s, 108° | - | - |
| 1778018831 | 16.67° C | 60% | 1016.9 hPa | 0 mm | 0.89 m/s, 104° | - | - |
| 1778015231 | 16.11° C | 58% | 1016.7 hPa | 0 mm | 1.34 m/s, 117° | - | - |
| 1778013431 | 16.11° C | 58% | 1017.1 hPa | 0 mm | 0.89 m/s, 119° | - | - |
| 1778011633 | 16.11° C | 57% | 1016.9 hPa | 0 mm | 2.24 m/s, 123° | - | - |
| 1778009832 | 15.56° C | 57% | 1017 hPa | 0 mm | 0.89 m/s, 107° | - | - |
| 1778000833 | 15.56° C | 58% | 1016.8 hPa | 0 mm | 1.34 m/s, 122° | - | - |
| 1777999032 | 15° C | 58% | 1017.1 hPa | 0 mm | 0.89 m/s, 112° | - | - |
| 1777993633 | 14.44° C | 58% | 1017.7 hPa | 0 mm | 0.89 m/s, 100° | - | - |
| 1777991833 | 14.44° C | 57% | 1017.9 hPa | 0 mm | 1.34 m/s, 78° | - | - |
| 1777990032 | 14.44° C | 57% | 1017.9 hPa | 0 mm | 0.89 m/s, 112° | - | - |
| 1777986433 | 14.44° C | 56% | 1018.1 hPa | 0 mm | 0.45 m/s, 109° | - | - |
| 1777982832 | 14.44° C | 53% | 1017.9 hPa | 0 mm | 0.45 m/s, 103° | - | - |
| 1777979234 | 15.56° C | 50% | 1017.4 hPa | 0 mm | 0.45 m/s, 112° | - | - |
| 1777973834 | 17.78° C | 39% | 1016.7 hPa | 0 mm | 0 m/s | - | - |
| 1777968433 | 18.89° C | 36% | 1016.4 hPa | 0 mm | 2.24 m/s, 209° | - | - |
| 1777966633 | 19.44° C | 39% | 1016.2 hPa | 0 mm | 1.34 m/s, 236° | - | - |
| 1777954035 | 20° C | 39% | 1015.4 hPa | 0 mm | 2.24 m/s, 239° | - | - |
* Rain latest hour (hover to see other rain measurements)
** Current wind speed in m/s (hover to see current wind gust speed)